sensor_id;sensor_type;location;lat;lon;timestamp;pressure;altitude;pressure_sealevel;temperature;humidity
5954;BME280;3002;42.642;24.812;2022-10-10T00:02:13;97200.34;;;17.59;82.22
5954;BME280;3002;42.642;24.812;2022-10-10T00:04:38;97193.94;;;17.46;82.74
5954;BME280;3002;42.642;24.812;2022-10-10T00:07:04;97197.69;;;17.28;85.33
5954;BME280;3002;42.642;24.812;2022-10-10T00:09:29;97200.06;;;17.29;85.56
5954;BME280;3002;42.642;24.812;2022-10-10T00:11:55;97204.84;;;17.24;86.54
5954;BME280;3002;42.642;24.812;2022-10-10T00:14:20;97206.09;;;17.26;85.94
5954;BME280;3002;42.642;24.812;2022-10-10T00:16:46;97210.25;;;17.24;85.85
5954;BME280;3002;42.642;24.812;2022-10-10T00:19:11;97212.47;;;17.22;85.85
5954;BME280;3002;42.642;24.812;2022-10-10T00:21:37;97212.06;;;17.06;87.11
5954;BME280;3002;42.642;24.812;2022-10-10T00:24:02;97208.13;;;16.90;88.58
5954;BME280;3002;42.642;24.812;2022-10-10T00:26:28;97213.41;;;16.86;90.22
5954;BME280;3002;42.642;24.812;2022-10-10T00:28:53;97210.41;;;16.96;89.60
5954;BME280;3002;42.642;24.812;2022-10-10T00:31:19;97211.31;;;17.14;87.10
5954;BME280;3002;42.642;24.812;2022-10-10T00:33:44;97204.75;;;17.06;88.51
5954;BME280;3002;42.642;24.812;2022-10-10T00:36:10;97217.28;;;17.02;88.99
5954;BME280;3002;42.642;24.812;2022-10-10T00:38:36;97216.34;;;16.76;90.97
5954;BME280;3002;42.642;24.812;2022-10-10T00:41:01;97218.78;;;17.08;88.28
5954;BME280;3002;42.642;24.812;2022-10-10T00:43:28;97214.34;;;17.12;87.90
5954;BME280;3002;42.642;24.812;2022-10-10T00:45:54;97228.00;;;17.07;89.09
5954;BME280;3002;42.642;24.812;2022-10-10T00:48:41;97213.16;;;17.27;87.73
5954;BME280;3002;42.642;24.812;2022-10-10T00:51:09;97217.41;;;17.20;87.38
5954;BME280;3002;42.642;24.812;2022-10-10T00:53:48;97222.81;;;17.20;88.14
5954;BME280;3002;42.642;24.812;2022-10-10T00:56:17;97228.91;;;17.25;87.73
5954;BME280;3002;42.642;24.812;2022-10-10T00:58:47;97228.00;;;17.38;87.57
5954;BME280;3002;42.642;24.812;2022-10-10T01:01:15;97236.72;;;17.27;89.09
5954;BME280;3002;42.642;24.812;2022-10-10T01:03:40;97229.69;;;17.17;89.19
5954;BME280;3002;42.642;24.812;2022-10-10T01:06:06;97237.16;;;17.20;90.34
5954;BME280;3002;42.642;24.812;2022-10-10T01:08:32;97235.63;;;17.28;88.29
5954;BME280;3002;42.642;24.812;2022-10-10T01:13:50;97203.94;;;17.37;85.17
5954;BME280;3002;42.642;24.812;2022-10-10T01:16:57;97209.31;;;17.28;86.79
5954;BME280;3002;42.642;24.812;2022-10-10T01:25:26;97220.53;;;17.04;85.02
5954;BME280;3002;42.642;24.812;2022-10-10T01:27:59;97221.63;;;17.34;82.70
5954;BME280;3002;42.642;24.812;2022-10-10T01:30:26;97213.28;;;17.22;79.56
5954;BME280;3002;42.642;24.812;2022-10-10T01:33:05;97226.19;;;17.25;82.06
5954;BME280;3002;42.642;24.812;2022-10-10T01:36:07;97223.94;;;17.19;82.19
5954;BME280;3002;42.642;24.812;2022-10-10T01:38:44;97228.81;;;17.39;81.04
5954;BME280;3002;42.642;24.812;2022-10-10T01:41:26;97225.66;;;17.46;80.97
5954;BME280;3002;42.642;24.812;2022-10-10T01:43:57;97237.94;;;17.12;83.92
5954;BME280;3002;42.642;24.812;2022-10-10T01:46:23;97229.94;;;16.84;86.22
5954;BME280;3002;42.642;24.812;2022-10-10T01:48:51;97235.63;;;16.60;88.36
5954;BME280;3002;42.642;24.812;2022-10-10T01:54:01;97241.13;;;16.69;89.33
5954;BME280;3002;42.642;24.812;2022-10-10T02:01:54;97221.28;;;16.38;91.94
5954;BME280;3002;42.642;24.812;2022-10-10T02:06:53;97227.66;;;16.19;94.28
5954;BME280;3002;42.642;24.812;2022-10-10T02:09:28;97228.47;;;16.42;89.26
5954;BME280;3002;42.642;24.812;2022-10-10T02:11:57;97232.31;;;17.08;80.94
5954;BME280;3002;42.642;24.812;2022-10-10T02:14:28;97239.81;;;17.34;79.65
5954;BME280;3002;42.642;24.812;2022-10-10T02:16:56;97246.00;;;17.65;79.17
5954;BME280;3002;42.642;24.812;2022-10-10T02:19:25;97255.53;;;17.54;81.54
5954;BME280;3002;42.642;24.812;2022-10-10T02:21:53;97255.00;;;17.12;86.13
5954;BME280;3002;42.642;24.812;2022-10-10T02:24:21;97254.50;;;17.10;87.13
5954;BME280;3002;42.642;24.812;2022-10-10T02:26:56;97261.03;;;17.09;88.97
5954;BME280;3002;42.642;24.812;2022-10-10T02:29:26;97269.56;;;17.25;87.39
5954;BME280;3002;42.642;24.812;2022-10-10T02:32:02;97268.19;;;17.36;86.86
5954;BME280;3002;42.642;24.812;2022-10-10T02:34:34;97272.72;;;17.19;88.21
5954;BME280;3002;42.642;24.812;2022-10-10T02:37:04;97266.75;;;17.08;89.11
5954;BME280;3002;42.642;24.812;2022-10-10T02:39:34;97273.47;;;16.88;91.23
5954;BME280;3002;42.642;24.812;2022-10-10T02:42:01;97262.09;;;16.64;92.84
5954;BME280;3002;42.642;24.812;2022-10-10T02:44:27;97260.69;;;16.44;96.02
5954;BME280;3002;42.642;24.812;2022-10-10T02:46:53;97267.59;;;16.72;94.76
5954;BME280;3002;42.642;24.812;2022-10-10T02:49:24;97272.09;;;16.41;97.03
5954;BME280;3002;42.642;24.812;2022-10-10T02:51:51;97267.94;;;16.57;95.20
5954;BME280;3002;42.642;24.812;2022-10-10T02:54:16;97264.19;;;16.80;94.15
5954;BME280;3002;42.642;24.812;2022-10-10T02:56:41;97263.91;;;16.18;100.00
5954;BME280;3002;42.642;24.812;2022-10-10T02:59:07;97279.56;;;16.94;89.73
5954;BME280;3002;42.642;24.812;2022-10-10T03:01:32;97264.31;;;16.98;88.71
5954;BME280;3002;42.642;24.812;2022-10-10T03:03:58;97270.09;;;17.05;89.96
5954;BME280;3002;42.642;24.812;2022-10-10T03:06:23;97278.03;;;17.24;89.56
5954;BME280;3002;42.642;24.812;2022-10-10T03:08:49;97281.59;;;16.88;93.13
5954;BME280;3002;42.642;24.812;2022-10-10T03:11:14;97286.03;;;17.29;90.98
5954;BME280;3002;42.642;24.812;2022-10-10T03:13:40;97276.28;;;17.28;90.62
5954;BME280;3002;42.642;24.812;2022-10-10T03:16:05;97288.31;;;17.44;90.60
5954;BME280;3002;42.642;24.812;2022-10-10T03:18:31;97289.53;;;17.07;93.43
5954;BME280;3002;42.642;24.812;2022-10-10T03:20:56;97292.84;;;17.26;93.98
5954;BME280;3002;42.642;24.812;2022-10-10T03:23:23;97300.66;;;17.50;91.14
5954;BME280;3002;42.642;24.812;2022-10-10T03:25:49;97297.78;;;17.78;87.47
5954;BME280;3002;42.642;24.812;2022-10-10T03:28:14;97298.97;;;17.94;84.98
5954;BME280;3002;42.642;24.812;2022-10-10T03:30:40;97300.25;;;17.97;85.39
5954;BME280;3002;42.642;24.812;2022-10-10T03:33:07;97297.19;;;17.89;87.12
5954;BME280;3002;42.642;24.812;2022-10-10T03:35:32;97297.06;;;17.95;87.60
5954;BME280;3002;42.642;24.812;2022-10-10T03:37:58;97292.81;;;18.19;83.68
5954;BME280;3002;42.642;24.812;2022-10-10T03:40:25;97290.38;;;18.01;83.61
5954;BME280;3002;42.642;24.812;2022-10-10T03:42:50;97284.19;;;18.35;79.61
5954;BME280;3002;42.642;24.812;2022-10-10T03:45:16;97285.53;;;18.55;78.57
5954;BME280;3002;42.642;24.812;2022-10-10T03:47:41;97284.69;;;18.45;80.66
5954;BME280;3002;42.642;24.812;2022-10-10T03:50:07;97293.94;;;18.27;82.19
5954;BME280;3002;42.642;24.812;2022-10-10T03:52:33;97283.34;;;18.08;84.52
5954;BME280;3002;42.642;24.812;2022-10-10T03:54:58;97291.28;;;17.87;88.33
5954;BME280;3002;42.642;24.812;2022-10-10T03:57:24;97280.94;;;17.67;87.81
5954;BME280;3002;42.642;24.812;2022-10-10T03:59:49;97282.03;;;17.97;87.36
5954;BME280;3002;42.642;24.812;2022-10-10T04:02:15;97277.13;;;18.08;83.81
5954;BME280;3002;42.642;24.812;2022-10-10T04:04:40;97280.28;;;17.92;85.59
5954;BME280;3002;42.642;24.812;2022-10-10T04:07:06;97286.13;;;18.26;85.27
5954;BME280;3002;42.642;24.812;2022-10-10T04:09:31;97278.63;;;18.31;82.62
5954;BME280;3002;42.642;24.812;2022-10-10T04:11:58;97285.97;;;18.31;81.78
5954;BME280;3002;42.642;24.812;2022-10-10T04:14:24;97285.91;;;17.11;91.81
5954;BME280;3002;42.642;24.812;2022-10-10T04:16:50;97297.78;;;17.47;91.07
5954;BME280;3002;42.642;24.812;2022-10-10T04:19:15;97282.97;;;17.92;87.18
5954;BME280;3002;42.642;24.812;2022-10-10T04:21:42;97300.84;;;17.85;90.50
5954;BME280;3002;42.642;24.812;2022-10-10T04:24:07;97293.03;;;17.83;89.60
5954;BME280;3002;42.642;24.812;2022-10-10T04:26:33;97299.25;;;17.84;91.51
5954;BME280;3002;42.642;24.812;2022-10-10T04:28:58;97286.78;;;17.83;87.53
5954;BME280;3002;42.642;24.812;2022-10-10T04:31:24;97285.88;;;17.96;85.59
5954;BME280;3002;42.642;24.812;2022-10-10T04:33:50;97284.47;;;17.67;89.15
5954;BME280;3002;42.642;24.812;2022-10-10T04:36:15;97305.53;;;17.71;89.79
5954;BME280;3002;42.642;24.812;2022-10-10T04:38:41;97308.81;;;17.05;96.42
5954;BME280;3002;42.642;24.812;2022-10-10T04:41:07;97312.50;;;17.63;91.75
5954;BME280;3002;42.642;24.812;2022-10-10T04:43:32;97314.13;;;17.64;92.45
5954;BME280;3002;42.642;24.812;2022-10-10T04:45:58;97319.09;;;17.71;90.17
5954;BME280;3002;42.642;24.812;2022-10-10T04:48:24;97320.50;;;17.68;92.93
5954;BME280;3002;42.642;24.812;2022-10-10T04:50:56;97326.78;;;18.00;87.49
5954;BME280;3002;42.642;24.812;2022-10-10T04:53:22;97329.44;;;17.91;89.18
5954;BME280;3002;42.642;24.812;2022-10-10T04:55:48;97327.25;;;18.10;85.57
5954;BME280;3002;42.642;24.812;2022-10-10T04:58:14;97329.88;;;17.84;89.17
5954;BME280;3002;42.642;24.812;2022-10-10T05:00:40;97322.97;;;18.09;85.60
5954;BME280;3002;42.642;24.812;2022-10-10T05:03:06;97330.78;;;18.11;89.26
5954;BME280;3002;42.642;24.812;2022-10-10T05:05:31;97333.16;;;18.04;90.50
5954;BME280;3002;42.642;24.812;2022-10-10T05:07:57;97325.72;;;18.18;86.78
5954;BME280;3002;42.642;24.812;2022-10-10T05:10:23;97337.78;;;18.03;91.54
5954;BME280;3002;42.642;24.812;2022-10-10T05:12:49;97349.34;;;18.17;91.23
5954;BME280;3002;42.642;24.812;2022-10-10T05:15:15;97332.09;;;18.22;90.51
5954;BME280;3002;42.642;24.812;2022-10-10T05:17:41;97335.00;;;18.34;90.29
5954;BME280;3002;42.642;24.812;2022-10-10T05:20:07;97340.47;;;18.43;88.74
5954;BME280;3002;42.642;24.812;2022-10-10T05:22:33;97343.81;;;18.40;90.15
5954;BME280;3002;42.642;24.812;2022-10-10T05:24:58;97341.91;;;18.49;90.75
5954;BME280;3002;42.642;24.812;2022-10-10T05:27:25;97333.13;;;18.52;91.58
5954;BME280;3002;42.642;24.812;2022-10-10T05:29:51;97341.13;;;18.57;88.76
5954;BME280;3002;42.642;24.812;2022-10-10T05:32:16;97337.28;;;18.58;90.55
5954;BME280;3002;42.642;24.812;2022-10-10T05:34:42;97352.53;;;18.68;90.22
5954;BME280;3002;42.642;24.812;2022-10-10T05:37:07;97341.34;;;18.78;89.17
5954;BME280;3002;42.642;24.812;2022-10-10T05:39:33;97356.72;;;19.09;86.96
5954;BME280;3002;42.642;24.812;2022-10-10T05:41:59;97357.50;;;19.18;89.57
5954;BME280;3002;42.642;24.812;2022-10-10T05:44:25;97359.56;;;19.38;87.10
5954;BME280;3002;42.642;24.812;2022-10-10T05:46:51;97364.34;;;19.50;84.68
5954;BME280;3002;42.642;24.812;2022-10-10T05:49:16;97369.63;;;19.46;86.35
5954;BME280;3002;42.642;24.812;2022-10-10T05:51:42;97363.03;;;19.82;83.02
5954;BME280;3002;42.642;24.812;2022-10-10T05:54:07;97362.97;;;19.99;81.16
5954;BME280;3002;42.642;24.812;2022-10-10T05:56:34;97366.81;;;19.98;79.11
5954;BME280;3002;42.642;24.812;2022-10-10T05:59:00;97366.78;;;20.07;78.70
5954;BME280;3002;42.642;24.812;2022-10-10T06:01:25;97369.53;;;20.45;76.93
5954;BME280;3002;42.642;24.812;2022-10-10T06:03:51;97372.97;;;21.05;74.62
5954;BME280;3002;42.642;24.812;2022-10-10T06:06:21;97371.97;;;20.89;71.73
5954;BME280;3002;42.642;24.812;2022-10-10T06:08:46;97375.25;;;20.52;73.40
5954;BME280;3002;42.642;24.812;2022-10-10T06:11:12;97367.09;;;20.05;73.87
5954;BME280;3002;42.642;24.812;2022-10-10T06:13:40;97381.69;;;20.01;72.58
5954;BME280;3002;42.642;24.812;2022-10-10T06:16:05;97375.28;;;20.73;69.90
5954;BME280;3002;42.642;24.812;2022-10-10T06:18:31;97377.31;;;21.06;67.53
5954;BME280;3002;42.642;24.812;2022-10-10T06:21:02;97383.91;;;21.59;65.68
5954;BME280;3002;42.642;24.812;2022-10-10T06:23:28;97389.41;;;22.04;63.56
5954;BME280;3002;42.642;24.812;2022-10-10T06:25:54;97392.75;;;22.59;61.61
5954;BME280;3002;42.642;24.812;2022-10-10T06:28:20;97398.63;;;24.22;56.88
5954;BME280;3002;42.642;24.812;2022-10-10T06:30:45;97384.09;;;25.58;52.46
5954;BME280;3002;42.642;24.812;2022-10-10T06:33:12;97393.19;;;26.74;49.29
5954;BME280;3002;42.642;24.812;2022-10-10T06:35:43;97392.97;;;28.10;45.73
5954;BME280;3002;42.642;24.812;2022-10-10T06:38:10;97391.56;;;28.26;45.26
5954;BME280;3002;42.642;24.812;2022-10-10T06:40:37;97394.97;;;29.05;42.95
5954;BME280;3002;42.642;24.812;2022-10-10T06:43:04;97403.00;;;28.73;42.24
5954;BME280;3002;42.642;24.812;2022-10-10T06:45:35;97401.53;;;26.77;46.09
5954;BME280;3002;42.642;24.812;2022-10-10T06:48:01;97400.44;;;27.38;44.51
5954;BME280;3002;42.642;24.812;2022-10-10T06:50:27;97392.53;;;27.37;44.54
5954;BME280;3002;42.642;24.812;2022-10-10T06:52:52;97388.06;;;28.81;41.60
5954;BME280;3002;42.642;24.812;2022-10-10T06:55:18;97389.03;;;29.94;39.72
5954;BME280;3002;42.642;24.812;2022-10-10T06:57:43;97383.06;;;29.77;39.61
5954;BME280;3002;42.642;24.812;2022-10-10T07:00:09;97384.50;;;29.50;39.84
5954;BME280;3002;42.642;24.812;2022-10-10T07:02:36;97391.09;;;28.65;40.48
5954;BME280;3002;42.642;24.812;2022-10-10T07:05:06;97397.56;;;28.32;42.38
5954;BME280;3002;42.642;24.812;2022-10-10T07:07:33;97393.06;;;28.65;41.58
5954;BME280;3002;42.642;24.812;2022-10-10T07:09:59;97394.78;;;28.84;40.93
5954;BME280;3002;42.642;24.812;2022-10-10T07:12:24;97394.56;;;29.03;39.46
5954;BME280;3002;42.642;24.812;2022-10-10T07:14:50;97397.31;;;29.94;39.02
5954;BME280;3002;42.642;24.812;2022-10-10T07:17:15;97395.59;;;28.88;39.89
5954;BME280;3002;42.642;24.812;2022-10-10T07:19:41;97399.47;;;27.57;41.93
5954;BME280;3002;42.642;24.812;2022-10-10T07:22:06;97387.97;;;26.91;43.28
5954;BME280;3002;42.642;24.812;2022-10-10T07:24:32;97395.97;;;27.94;41.28
5954;BME280;3002;42.642;24.812;2022-10-10T07:26:57;97401.91;;;26.76;43.76
5954;BME280;3002;42.642;24.812;2022-10-10T07:29:22;97391.03;;;29.13;39.36
5954;BME280;3002;42.642;24.812;2022-10-10T07:31:48;97387.19;;;24.83;46.67
5954;BME280;3002;42.642;24.812;2022-10-10T07:34:14;97403.84;;;24.27;49.50
5954;BME280;3002;42.642;24.812;2022-10-10T07:36:39;97410.03;;;27.52;43.58
5954;BME280;3002;42.642;24.812;2022-10-10T07:39:05;97410.31;;;28.51;40.39
5954;BME280;3002;42.642;24.812;2022-10-10T07:41:30;97409.69;;;28.27;40.07
5954;BME280;3002;42.642;24.812;2022-10-10T07:43:56;97412.25;;;29.68;37.18
5954;BME280;3002;42.642;24.812;2022-10-10T07:46:21;97409.16;;;27.44;40.09
5954;BME280;3002;42.642;24.812;2022-10-10T07:48:47;97413.88;;;27.13;41.53
5954;BME280;3002;42.642;24.812;2022-10-10T07:51:13;97406.09;;;27.83;40.66
5954;BME280;3002;42.642;24.812;2022-10-10T07:53:40;97401.31;;;26.89;42.07
5954;BME280;3002;42.642;24.812;2022-10-10T07:56:07;97406.69;;;26.56;43.64
5954;BME280;3002;42.642;24.812;2022-10-10T07:58:34;97410.47;;;27.24;42.52
5954;BME280;3002;42.642;24.812;2022-10-10T08:01:07;97402.94;;;25.60;45.16
5954;BME280;3002;42.642;24.812;2022-10-10T08:03:33;97419.94;;;26.04;44.41
5954;BME280;3002;42.642;24.812;2022-10-10T08:06:05;97420.47;;;28.40;40.26
5954;BME280;3002;42.642;24.812;2022-10-10T08:08:30;97418.91;;;29.56;38.12
5954;BME280;3002;42.642;24.812;2022-10-10T08:10:56;97419.97;;;30.71;35.79
5954;BME280;3002;42.642;24.812;2022-10-10T08:13:23;97425.09;;;30.36;36.28
5954;BME280;3002;42.642;24.812;2022-10-10T08:15:52;97419.94;;;30.67;35.33
5954;BME280;3002;42.642;24.812;2022-10-10T08:18:18;97431.84;;;27.34;40.79
5954;BME280;3002;42.642;24.812;2022-10-10T08:20:44;97425.94;;;29.43;37.81
5954;BME280;3002;42.642;24.812;2022-10-10T08:23:10;97423.72;;;29.80;37.18
5954;BME280;3002;42.642;24.812;2022-10-10T08:25:35;97424.53;;;29.84;36.33
5954;BME280;3002;42.642;24.812;2022-10-10T08:28:01;97424.22;;;30.07;36.73
5954;BME280;3002;42.642;24.812;2022-10-10T08:30:27;97419.31;;;29.58;35.56
5954;BME280;3002;42.642;24.812;2022-10-10T08:32:52;97426.28;;;30.50;35.61
5954;BME280;3002;42.642;24.812;2022-10-10T08:35:18;97427.94;;;26.82;41.53
5954;BME280;3002;42.642;24.812;2022-10-10T08:37:43;97419.69;;;28.43;39.41
5954;BME280;3002;42.642;24.812;2022-10-10T08:40:19;97419.16;;;30.38;35.91
5954;BME280;3002;42.642;24.812;2022-10-10T08:42:49;97428.00;;;31.88;33.99
5954;BME280;3002;42.642;24.812;2022-10-10T08:45:20;97415.25;;;32.02;33.42
5954;BME280;3002;42.642;24.812;2022-10-10T08:47:56;97420.03;;;31.98;33.44
5954;BME280;3002;42.642;24.812;2022-10-10T08:50:31;97426.66;;;31.05;33.53
5954;BME280;3002;42.642;24.812;2022-10-10T08:53:07;97428.66;;;30.98;35.07
5954;BME280;3002;42.642;24.812;2022-10-10T08:55:37;97410.94;;;29.40;36.83
5954;BME280;3002;42.642;24.812;2022-10-10T09:00:47;97424.22;;;31.39;33.57
5954;BME280;3002;42.642;24.812;2022-10-10T09:03:24;97419.56;;;30.79;34.91
5954;BME280;3002;42.642;24.812;2022-10-10T09:08:38;97423.50;;;30.82;34.07
5954;BME280;3002;42.642;24.812;2022-10-10T09:11:13;97418.38;;;30.55;34.51
5954;BME280;3002;42.642;24.812;2022-10-10T09:14:10;97417.56;;;30.58;35.20
5954;BME280;3002;42.642;24.812;2022-10-10T09:16:49;97404.13;;;30.57;35.22
5954;BME280;3002;42.642;24.812;2022-10-10T09:22:02;97409.19;;;31.23;33.42
5954;BME280;3002;42.642;24.812;2022-10-10T09:24:35;97410.81;;;31.31;34.37
5954;BME280;3002;42.642;24.812;2022-10-10T09:27:04;97407.28;;;30.77;35.83
5954;BME280;3002;42.642;24.812;2022-10-10T09:29:45;97407.91;;;29.67;36.33
5954;BME280;3002;42.642;24.812;2022-10-10T09:32:38;97401.34;;;30.39;35.48
5954;BME280;3002;42.642;24.812;2022-10-10T09:35:21;97403.00;;;29.35;36.84
5954;BME280;3002;42.642;24.812;2022-10-10T09:37:54;97402.00;;;29.75;36.10
5954;BME280;3002;42.642;24.812;2022-10-10T09:40:29;97398.03;;;28.04;38.01
5954;BME280;3002;42.642;24.812;2022-10-10T09:42:58;97397.81;;;28.64;38.21
5954;BME280;3002;42.642;24.812;2022-10-10T09:45:39;97404.50;;;30.20;35.09
5954;BME280;3002;42.642;24.812;2022-10-10T09:48:09;97404.88;;;31.11;34.90
5954;BME280;3002;42.642;24.812;2022-10-10T09:50:36;97402.13;;;30.64;34.47
5954;BME280;3002;42.642;24.812;2022-10-10T09:53:02;97402.63;;;28.78;36.83
5954;BME280;3002;42.642;24.812;2022-10-10T09:55:38;97401.88;;;28.85;37.08
5954;BME280;3002;42.642;24.812;2022-10-10T09:58:22;97393.47;;;28.19;38.12
5954;BME280;3002;42.642;24.812;2022-10-10T10:00:50;97400.78;;;27.67;39.47
5954;BME280;3002;42.642;24.812;2022-10-10T10:03:19;97393.38;;;29.04;37.24
5954;BME280;3002;42.642;24.812;2022-10-10T10:05:54;97398.53;;;30.00;35.90
5954;BME280;3002;42.642;24.812;2022-10-10T10:08:29;97396.75;;;29.49;36.61
5954;BME280;3002;42.642;24.812;2022-10-10T10:10:56;97395.75;;;26.86;41.07
5954;BME280;3002;42.642;24.812;2022-10-10T10:13:26;97387.59;;;26.21;41.39
5954;BME280;3002;42.642;24.812;2022-10-10T10:18:43;97384.66;;;29.02;37.28
5954;BME280;3002;42.642;24.812;2022-10-10T10:21:22;97379.94;;;27.36;39.13
5954;BME280;3002;42.642;24.812;2022-10-10T10:24:01;97388.13;;;28.88;37.15
5954;BME280;3002;42.642;24.812;2022-10-10T10:26:43;97382.50;;;28.30;38.83
5954;BME280;3002;42.642;24.812;2022-10-10T10:39:57;97370.66;;;29.43;37.39
5954;BME280;3002;42.642;24.812;2022-10-10T10:45:07;97367.03;;;28.14;39.57
5954;BME280;3002;42.642;24.812;2022-10-10T10:50:43;97357.63;;;28.70;38.03
5954;BME280;3002;42.642;24.812;2022-10-10T11:02:09;97348.38;;;28.45;38.76
5954;BME280;3002;42.642;24.812;2022-10-10T11:07:21;97347.22;;;29.08;37.60
5954;BME280;3002;42.642;24.812;2022-10-10T11:15:18;97344.44;;;29.01;36.91
5954;BME280;3002;42.642;24.812;2022-10-10T11:18:02;97347.88;;;29.71;36.47
5954;BME280;3002;42.642;24.812;2022-10-10T11:20:35;97338.47;;;30.75;35.00
5954;BME280;3002;42.642;24.812;2022-10-10T11:23:19;97332.94;;;30.47;34.98
5954;BME280;3002;42.642;24.812;2022-10-10T11:25:49;97327.41;;;30.68;35.51
5954;BME280;3002;42.642;24.812;2022-10-10T11:28:21;97337.59;;;29.61;35.82
5954;BME280;3002;42.642;24.812;2022-10-10T11:30:54;97331.13;;;28.59;37.40
5954;BME280;3002;42.642;24.812;2022-10-10T11:33:46;97332.72;;;29.32;36.96
5954;BME280;3002;42.642;24.812;2022-10-10T11:36:19;97325.38;;;27.48;39.95
5954;BME280;3002;42.642;24.812;2022-10-10T11:38:49;97333.78;;;26.42;41.86
5954;BME280;3002;42.642;24.812;2022-10-10T11:41:30;97323.13;;;28.98;37.58
5954;BME280;3002;42.642;24.812;2022-10-10T11:44:04;97319.94;;;28.96;36.56
5954;BME280;3002;42.642;24.812;2022-10-10T11:46:40;97319.44;;;29.63;36.42
5954;BME280;3002;42.642;24.812;2022-10-10T11:54:37;97314.66;;;28.69;38.00
5954;BME280;3002;42.642;24.812;2022-10-10T11:57:12;97306.72;;;28.64;37.10
5954;BME280;3002;42.642;24.812;2022-10-10T11:59:45;97304.72;;;28.58;37.40
5954;BME280;3002;42.642;24.812;2022-10-10T12:02:34;97290.69;;;27.78;39.12
5954;BME280;3002;42.642;24.812;2022-10-10T12:05:01;97303.31;;;28.30;38.58
5954;BME280;3002;42.642;24.812;2022-10-10T12:10:05;97289.13;;;24.99;44.26
5954;BME280;3002;42.642;24.812;2022-10-10T12:12:43;97300.97;;;25.61;43.21
5954;BME280;3002;42.642;24.812;2022-10-10T12:15:26;97295.13;;;26.58;41.25
5954;BME280;3002;42.642;24.812;2022-10-10T12:17:53;97302.19;;;27.16;40.14
5954;BME280;3002;42.642;24.812;2022-10-10T12:22:46;97294.69;;;26.86;41.00
5954;BME280;3002;42.642;24.812;2022-10-10T12:25:45;97295.72;;;27.05;40.28
5954;BME280;3002;42.642;24.812;2022-10-10T12:35:53;97307.00;;;26.39;42.20
5954;BME280;3002;42.642;24.812;2022-10-10T12:38:26;97286.91;;;26.92;43.70
5954;BME280;3002;42.642;24.812;2022-10-10T12:41:13;97292.59;;;25.74;44.02
5954;BME280;3002;42.642;24.812;2022-10-10T12:43:48;97280.47;;;26.81;42.18
5954;BME280;3002;42.642;24.812;2022-10-10T12:46:18;97289.97;;;27.13;41.04
5954;BME280;3002;42.642;24.812;2022-10-10T12:49:17;97283.56;;;26.23;42.33
5954;BME280;3002;42.642;24.812;2022-10-10T12:51:42;97274.94;;;27.07;40.90
5954;BME280;3002;42.642;24.812;2022-10-10T12:54:21;97274.28;;;26.57;42.18
5954;BME280;3002;42.642;24.812;2022-10-10T12:56:51;97265.00;;;27.70;39.51
5954;BME280;3002;42.642;24.812;2022-10-10T12:59:24;97266.69;;;26.24;41.60
5954;BME280;3002;42.642;24.812;2022-10-10T13:01:54;97270.97;;;25.53;43.20
5954;BME280;3002;42.642;24.812;2022-10-10T13:04:21;97270.50;;;26.69;43.95
5954;BME280;3002;42.642;24.812;2022-10-10T13:06:52;97272.59;;;26.26;42.72
5954;BME280;3002;42.642;24.812;2022-10-10T13:09:21;97273.38;;;26.50;42.06
5954;BME280;3002;42.642;24.812;2022-10-10T13:12:01;97274.44;;;26.41;42.78
5954;BME280;3002;42.642;24.812;2022-10-10T13:14:44;97263.78;;;26.97;41.37
5954;BME280;3002;42.642;24.812;2022-10-10T13:17:29;97265.19;;;27.51;39.32
5954;BME280;3002;42.642;24.812;2022-10-10T13:19:58;97266.06;;;28.03;38.79
5954;BME280;3002;42.642;24.812;2022-10-10T13:22:24;97256.19;;;28.49;38.36
5954;BME280;3002;42.642;24.812;2022-10-10T13:24:50;97257.59;;;28.29;37.98
5954;BME280;3002;42.642;24.812;2022-10-10T13:27:20;97258.31;;;27.34;39.81
5954;BME280;3002;42.642;24.812;2022-10-10T13:29:47;97255.97;;;28.21;38.56
5954;BME280;3002;42.642;24.812;2022-10-10T13:32:16;97250.84;;;28.19;37.79
5954;BME280;3002;42.642;24.812;2022-10-10T13:34:45;97252.44;;;27.02;39.51
5954;BME280;3002;42.642;24.812;2022-10-10T13:37:16;97246.88;;;27.69;38.83
5954;BME280;3002;42.642;24.812;2022-10-10T13:39:43;97250.22;;;27.48;40.28
5954;BME280;3002;42.642;24.812;2022-10-10T13:42:35;97235.16;;;27.05;41.21
5954;BME280;3002;42.642;24.812;2022-10-10T13:47:55;97230.09;;;27.44;41.06
5954;BME280;3002;42.642;24.812;2022-10-10T13:50:29;97243.22;;;27.17;41.18
5954;BME280;3002;42.642;24.812;2022-10-10T13:56:29;97240.63;;;27.01;40.98
5954;BME280;3002;42.642;24.812;2022-10-10T14:01:36;97235.00;;;27.24;43.80
5954;BME280;3002;42.642;24.812;2022-10-10T14:06:39;97228.38;;;26.95;41.95
5954;BME280;3002;42.642;24.812;2022-10-10T14:09:18;97228.88;;;26.74;42.19
5954;BME280;3002;42.642;24.812;2022-10-10T14:11:48;97230.28;;;26.61;41.81
5954;BME280;3002;42.642;24.812;2022-10-10T14:14:16;97231.25;;;25.70;44.44
5954;BME280;3002;42.642;24.812;2022-10-10T14:16:44;97228.81;;;26.14;42.73
5954;BME280;3002;42.642;24.812;2022-10-10T14:19:17;97224.97;;;25.46;44.92
5954;BME280;3002;42.642;24.812;2022-10-10T14:21:43;97235.31;;;25.76;44.74
5954;BME280;3002;42.642;24.812;2022-10-10T14:24:09;97238.28;;;25.67;44.76
5954;BME280;3002;42.642;24.812;2022-10-10T14:26:35;97227.06;;;25.76;44.44
5954;BME280;3002;42.642;24.812;2022-10-10T14:29:00;97228.75;;;25.61;45.13
5954;BME280;3002;42.642;24.812;2022-10-10T14:31:26;97221.25;;;25.81;45.11
5954;BME280;3002;42.642;24.812;2022-10-10T14:33:53;97226.34;;;25.59;45.76
5954;BME280;3002;42.642;24.812;2022-10-10T14:36:19;97219.94;;;25.29;46.06
5954;BME280;3002;42.642;24.812;2022-10-10T14:38:44;97213.84;;;25.16;46.35
5954;BME280;3002;42.642;24.812;2022-10-10T14:41:12;97230.25;;;25.35;46.80
5954;BME280;3002;42.642;24.812;2022-10-10T14:43:38;97226.66;;;25.31;47.34
5954;BME280;3002;42.642;24.812;2022-10-10T14:46:04;97225.22;;;25.18;46.69
5954;BME280;3002;42.642;24.812;2022-10-10T14:48:30;97223.44;;;25.06;47.02
5954;BME280;3002;42.642;24.812;2022-10-10T14:50:55;97223.00;;;25.04;47.90
5954;BME280;3002;42.642;24.812;2022-10-10T14:53:21;97232.97;;;25.13;46.07
5954;BME280;3002;42.642;24.812;2022-10-10T14:55:47;97231.84;;;25.14;47.15